Time,TemperatureF,DewpointF,PressureIn,WindDirection,WindDirectionDegrees,WindSpeedMPH,WindSpeedGustMPH,Humidity,HourlyPrecipIn,Conditions,Clouds,dailyrainin,SolarRadiationWatts/m^2,SoftwareType,DateUTC
2013-02-26 00:01:00,29.0,27.0,-100.00,SE,144,1.0,4.0,91,0.00,,,0.17,0.000000,,2013-02-26 05:01:00,
2013-02-26 00:12:00,29.0,27.0,-100.00,SE,144,1.0,4.0,91,0.00,,,0.17,0.000000,,2013-02-26 05:12:00,
2013-02-26 00:22:00,29.0,27.0,-100.00,SE,144,1.0,4.0,91,0.00,,,0.17,0.000000,,2013-02-26 05:22:00,
2013-02-26 00:52:00,29.0,27.0,-100.00,East,91,1.0,3.0,93,0.00,,,0.17,0.000000,,2013-02-26 05:52:00,
2013-02-26 01:02:00,29.0,27.0,-100.00,East,91,1.0,3.0,93,0.00,,,0.17,0.000000,,2013-02-26 06:02:00,
2013-02-26 01:11:00,29.0,27.0,-100.00,East,91,1.0,3.0,93,0.00,,,0.17,0.000000,,2013-02-26 06:11:00,
2013-02-26 01:21:00,29.0,27.0,-100.00,East,91,1.0,3.0,93,0.00,,,0.17,0.000000,,2013-02-26 06:21:00,
2013-02-26 01:52:00,28.0,27.0,-100.00,ESE,122,1.0,3.0,94,0.00,,,0.17,0.000000,,2013-02-26 06:52:00,
2013-02-26 02:01:00,28.0,27.0,-100.00,ESE,122,1.0,3.0,94,0.00,,,0.17,0.000000,,2013-02-26 07:01:00,
2013-02-26 02:11:00,28.0,27.0,-100.00,ESE,122,1.0,3.0,94,0.00,,,0.17,0.000000,,2013-02-26 07:11:00,
2013-02-26 02:22:00,28.0,27.0,-100.00,ESE,122,1.0,3.0,94,0.00,,,0.17,0.000000,,2013-02-26 07:22:00,
2013-02-26 02:52:00,28.0,26.0,-100.00,SE,124,2.0,5.0,92,0.00,,,0.17,0.000000,,2013-02-26 07:52:00,
2013-02-26 03:02:00,28.0,26.0,-100.00,SE,124,2.0,5.0,92,0.00,,,0.17,0.000000,,2013-02-26 08:02:00,
2013-02-26 03:11:00,28.0,26.0,-100.00,SE,124,2.0,5.0,92,0.00,,,0.17,0.000000,,2013-02-26 08:11:00,
2013-02-26 03:21:00,28.0,26.0,-100.00,SE,124,2.0,5.0,92,0.00,,,0.17,0.000000,,2013-02-26 08:21:00,
2013-02-26 03:52:00,26.0,24.0,-100.00,East,88,1.0,5.0,92,0.00,,,0.17,0.000000,,2013-02-26 08:52:00,
2013-02-26 04:02:00,26.0,24.0,-100.00,East,88,1.0,5.0,92,0.00,,,0.17,0.000000,,2013-02-26 09:02:00,
2013-02-26 04:11:00,26.0,24.0,-100.00,East,88,1.0,5.0,92,0.00,,,0.17,0.000000,,2013-02-26 09:11:00,
2013-02-26 04:21:00,26.0,24.0,-100.00,East,88,1.0,5.0,92,0.00,,,0.17,0.000000,,2013-02-26 09:21:00,
2013-02-26 04:52:00,25.0,23.0,-100.00,ESE,109,2.0,3.0,92,0.00,,,0.17,0.000000,,2013-02-26 09:52:00,
2013-02-26 05:01:00,25.0,23.0,-100.00,ESE,109,2.0,3.0,92,0.00,,,0.17,0.000000,,2013-02-26 10:01:00,
2013-02-26 05:11:00,25.0,23.0,-100.00,ESE,109,2.0,3.0,92,0.00,,,0.17,0.000000,,2013-02-26 10:11:00,
2013-02-26 05:21:00,25.0,23.0,-100.00,ESE,109,2.0,3.0,92,0.00,,,0.17,0.000000,,2013-02-26 10:21:00,
2013-02-26 05:52:00,22.0,20.0,-100.00,SE,128,2.0,3.0,91,0.00,,,0.17,0.000000,,2013-02-26 10:52:00,
2013-02-26 06:01:00,22.0,20.0,-100.00,SE,128,2.0,3.0,91,0.00,,,0.17,0.000000,,2013-02-26 11:01:00,
2013-02-26 06:12:00,22.0,20.0,-100.00,SE,128,2.0,3.0,91,0.00,,,0.17,0.000000,,2013-02-26 11:12:00,
2013-02-26 06:22:00,22.0,20.0,-100.00,SE,128,2.0,3.0,91,0.00,,,0.17,0.000000,,2013-02-26 11:22:00,
2013-02-26 06:53:00,21.0,19.0,-100.00,ESE,121,2.0,3.0,92,0.00,,,0.17,0.000000,,2013-02-26 11:53:00,
2013-02-26 07:02:00,21.0,19.0,-100.00,ESE,121,2.0,3.0,92,0.00,,,0.17,0.000000,,2013-02-26 12:02:00,
2013-02-26 07:11:00,21.0,19.0,-100.00,ESE,121,2.0,3.0,92,0.00,,,0.17,0.000000,,2013-02-26 12:11:00,
2013-02-26 07:22:00,21.0,19.0,-100.00,ESE,121,2.0,3.0,92,0.00,,,0.17,0.000000,,2013-02-26 12:22:00,
2013-02-26 07:53:00,21.0,19.0,-100.00,SSE,152,0.0,3.0,90,0.00,,,0.17,14.000000,,2013-02-26 12:53:00,
2013-02-26 08:02:00,21.0,19.0,-100.00,SSE,152,0.0,3.0,90,0.00,,,0.17,14.000000,,2013-02-26 13:02:00,
2013-02-26 08:11:00,21.0,19.0,-100.00,SSE,152,0.0,3.0,90,0.00,,,0.17,14.000000,,2013-02-26 13:11:00,
2013-02-26 08:22:00,21.0,19.0,-100.00,SSE,152,0.0,3.0,90,0.00,,,0.17,14.000000,,2013-02-26 13:22:00,
2013-02-26 08:52:00,28.0,23.0,-100.00,ENE,75,0.0,2.0,82,0.00,,,0.17,109.000000,,2013-02-26 13:52:00,
2013-02-26 09:02:00,28.0,23.0,-100.00,ENE,75,0.0,2.0,82,0.00,,,0.17,109.000000,,2013-02-26 14:02:00,
2013-02-26 09:11:00,28.0,23.0,-100.00,ENE,75,0.0,2.0,82,0.00,,,0.17,109.000000,,2013-02-26 14:11:00,
2013-02-26 09:21:00,28.0,23.0,-100.00,ENE,75,0.0,2.0,82,0.00,,,0.17,109.000000,,2013-02-26 14:21:00,
2013-02-26 09:52:00,34.0,26.0,-100.00,WNW,290,1.0,2.0,73,0.00,,,0.17,173.000000,,2013-02-26 14:52:00,
2013-02-26 10:02:00,34.0,26.0,-100.00,WNW,290,1.0,2.0,73,0.00,,,0.17,173.000000,,2013-02-26 15:02:00,
2013-02-26 10:11:00,34.0,26.0,-100.00,WNW,290,1.0,2.0,73,0.00,,,0.17,173.000000,,2013-02-26 15:11:00,
2013-02-26 10:22:00,34.0,26.0,-100.00,WNW,290,1.0,2.0,73,0.00,,,0.17,173.000000,,2013-02-26 15:22:00,
2013-02-26 10:52:00,38.0,25.0,-100.00,SE,139,3.0,7.0,60,0.00,,,0.00,320.000000,,2013-02-26 15:52:00,
2013-02-26 11:02:00,38.0,25.0,-100.00,SE,139,3.0,7.0,60,0.00,,,0.00,320.000000,,2013-02-26 16:02:00,
2013-02-26 11:11:00,38.0,25.0,-100.00,SE,139,3.0,7.0,60,0.00,,,0.00,320.000000,,2013-02-26 16:11:00,
2013-02-26 11:22:00,38.0,25.0,-100.00,SE,139,3.0,7.0,60,0.00,,,0.00,320.000000,,2013-02-26 16:22:00,
2013-02-26 11:52:00,40.0,24.0,-100.00,ESE,110,3.0,6.0,52,0.00,,,0.00,397.000000,,2013-02-26 16:52:00,
2013-02-26 12:02:00,40.0,24.0,-100.00,ESE,110,3.0,6.0,52,0.00,,,0.00,397.000000,,2013-02-26 17:02:00,
2013-02-26 12:11:00,40.0,24.0,-100.00,ESE,110,3.0,6.0,52,0.00,,,0.00,397.000000,,2013-02-26 17:11:00,
2013-02-26 12:22:00,40.0,24.0,-100.00,ESE,110,3.0,6.0,52,0.00,,,0.00,397.000000,,2013-02-26 17:22:00,
2013-02-26 12:52:00,42.0,25.0,-100.00,ESE,119,3.0,8.0,50,0.00,,,0.00,389.000000,,2013-02-26 17:52:00,
2013-02-26 13:02:00,42.0,25.0,-100.00,ESE,119,3.0,8.0,50,0.00,,,0.00,389.000000,,2013-02-26 18:02:00,
2013-02-26 13:12:00,42.0,25.0,-100.00,ESE,119,3.0,8.0,50,0.00,,,0.00,389.000000,,2013-02-26 18:12:00,
2013-02-26 13:21:00,42.0,25.0,-100.00,ESE,119,3.0,8.0,50,0.00,,,0.00,389.000000,,2013-02-26 18:21:00,
2013-02-26 13:53:00,40.0,25.0,-100.00,ESE,105,3.0,7.0,55,0.00,,,0.00,272.000000,,2013-02-26 18:53:00,
2013-02-26 14:02:00,40.0,25.0,-100.00,ESE,105,3.0,7.0,55,0.00,,,0.00,272.000000,,2013-02-26 19:02:00,
2013-02-26 14:11:00,40.0,25.0,-100.00,ESE,105,3.0,7.0,55,0.00,,,0.00,272.000000,,2013-02-26 19:11:00,
2013-02-26 14:22:00,40.0,25.0,-100.00,ESE,105,3.0,7.0,55,0.00,,,0.00,272.000000,,2013-02-26 19:22:00,
2013-02-26 14:52:00,38.0,25.0,-100.00,SE,140,2.0,7.0,60,0.00,,,0.00,175.000000,,2013-02-26 19:52:00,
2013-02-26 15:01:00,38.0,25.0,-100.00,SE,140,2.0,7.0,60,0.00,,,0.00,175.000000,,2013-02-26 20:01:00,
2013-02-26 15:11:00,38.0,25.0,-100.00,SE,140,2.0,7.0,60,0.00,,,0.00,175.000000,,2013-02-26 20:11:00,
2013-02-26 15:22:00,38.0,25.0,-100.00,SE,140,2.0,7.0,60,0.00,,,0.00,175.000000,,2013-02-26 20:22:00,
2013-02-26 16:51:00,36.0,27.0,-100.00,ESE,123,1.0,4.0,69,-99.99,,,0.00,40.000000,,2013-02-26 21:51:00,
2013-02-26 17:01:00,36.0,27.0,-100.00,ESE,123,1.0,4.0,69,-99.99,,,0.00,40.000000,,2013-02-26 22:01:00,
2013-02-26 17:11:00,36.0,27.0,-100.00,ESE,123,1.0,4.0,69,-99.99,,,0.00,40.000000,,2013-02-26 22:11:00,
2013-02-26 17:21:00,36.0,27.0,-100.00,ESE,123,1.0,4.0,69,-99.99,,,0.00,40.000000,,2013-02-26 22:21:00,
2013-02-26 17:52:00,34.0,28.0,-100.00,SW,233,1.0,3.0,77,0.00,,,0.00,14.000000,,2013-02-26 22:52:00,
2013-02-26 18:01:00,34.0,28.0,-100.00,SW,233,1.0,3.0,77,0.00,,,0.00,14.000000,,2013-02-26 23:01:00,
2013-02-26 18:11:00,34.0,28.0,-100.00,SW,233,1.0,3.0,77,0.00,,,0.00,14.000000,,2013-02-26 23:11:00,
2013-02-26 18:21:00,34.0,28.0,-100.00,SW,233,1.0,3.0,77,0.00,,,0.00,14.000000,,2013-02-26 23:21:00,
2013-02-26 18:52:00,33.0,27.0,-100.00,SSW,210,1.0,4.0,78,0.00,,,0.00,0.000000,,2013-02-26 23:52:00,
2013-02-26 19:02:00,33.0,27.0,-100.00,SSW,210,1.0,4.0,78,0.00,,,0.00,0.000000,,2013-02-27 00:02:00,
2013-02-26 19:11:00,33.0,27.0,-100.00,SSW,210,1.0,4.0,78,0.00,,,0.00,0.000000,,2013-02-27 00:11:00,
2013-02-26 19:22:00,33.0,27.0,-100.00,SSW,210,1.0,4.0,78,0.00,,,0.00,0.000000,,2013-02-27 00:22:00,
2013-02-26 19:52:00,33.0,28.0,-100.00,North,352,0.0,5.0,82,0.00,,,0.00,0.000000,,2013-02-27 00:52:00,
2013-02-26 20:01:00,33.0,28.0,-100.00,North,352,0.0,5.0,82,0.00,,,0.00,0.000000,,2013-02-27 01:01:00,
2013-02-26 20:11:00,33.0,28.0,-100.00,North,352,0.0,5.0,82,0.00,,,0.00,0.000000,,2013-02-27 01:11:00,
2013-02-26 20:22:00,33.0,28.0,-100.00,North,352,0.0,5.0,82,0.00,,,0.00,0.000000,,2013-02-27 01:22:00,
2013-02-26 20:52:00,33.0,27.0,-100.00,NE,39,2.0,7.0,77,0.00,,,0.00,0.000000,,2013-02-27 01:52:00,
2013-02-26 21:02:00,33.0,27.0,-100.00,NE,39,2.0,7.0,77,0.00,,,0.00,0.000000,,2013-02-27 02:02:00,
2013-02-26 21:16:00,33.0,27.0,-100.00,NE,39,2.0,7.0,77,0.00,,,0.00,0.000000,,2013-02-27 02:16:00,
2013-02-26 21:24:00,33.0,27.0,-100.00,NE,39,2.0,7.0,77,0.00,,,0.00,0.000000,,2013-02-27 02:24:00,
2013-02-26 21:52:00,32.0,25.0,-100.00,NE,39,3.0,7.0,76,0.00,,,0.00,0.000000,,2013-02-27 02:52:00,
2013-02-26 22:02:00,32.0,25.0,-100.00,NE,39,3.0,7.0,76,0.00,,,0.00,0.000000,,2013-02-27 03:02:00,
2013-02-26 22:11:00,32.0,25.0,-100.00,NE,39,3.0,7.0,76,0.00,,,0.00,0.000000,,2013-02-27 03:11:00,
2013-02-26 22:22:00,32.0,25.0,-100.00,NE,39,3.0,7.0,76,0.00,,,0.00,0.000000,,2013-02-27 03:22:00,
2013-02-26 22:52:00,32.0,25.0,-100.00,East,91,2.0,6.0,74,0.00,,,0.00,0.000000,,2013-02-27 03:52:00,
2013-02-26 23:02:00,32.0,25.0,-100.00,East,91,2.0,6.0,74,0.00,,,0.00,0.000000,,2013-02-27 04:02:00,
2013-02-26 23:12:00,32.0,25.0,-100.00,East,91,2.0,6.0,74,0.00,,,0.00,0.000000,,2013-02-27 04:12:00,
2013-02-26 23:22:00,32.0,25.0,-100.00,East,91,2.0,6.0,74,0.00,,,0.00,0.000000,,2013-02-27 04:22:00,
2013-02-26 23:52:00,31.0,24.0,-100.00,East,80,3.0,7.0,74,0.00,,,0.00,0.000000,,2013-02-27 04:52:00,